sensor_id;sensor_type;location;lat;lon;timestamp;P1;durP1;ratioP1;P2;durP2;ratioP2
43706;SDS011;61348;53.392;-6.248;2022-11-18T00:01:37;28.73;;;12.10;;
43706;SDS011;61348;53.392;-6.248;2022-11-18T00:04:04;20.00;;;10.23;;
43706;SDS011;61348;53.392;-6.248;2022-11-18T00:06:31;26.35;;;13.00;;
43706;SDS011;61348;53.392;-6.248;2022-11-18T00:08:58;23.70;;;10.43;;
43706;SDS011;61348;53.392;-6.248;2022-11-18T00:11:26;25.83;;;11.05;;
43706;SDS011;61348;53.392;-6.248;2022-11-18T00:14:13;24.23;;;9.93;;
43706;SDS011;61348;53.392;-6.248;2022-11-18T00:19:22;29.75;;;10.27;;
43706;SDS011;61348;53.392;-6.248;2022-11-18T00:21:51;17.83;;;9.00;;
43706;SDS011;61348;53.392;-6.248;2022-11-18T00:24:18;19.50;;;9.18;;
43706;SDS011;61348;53.392;-6.248;2022-11-18T00:26:45;24.95;;;10.23;;
43706;SDS011;61348;53.392;-6.248;2022-11-18T00:29:12;20.42;;;8.75;;
43706;SDS011;61348;53.392;-6.248;2022-11-18T00:31:40;21.85;;;9.25;;
43706;SDS011;61348;53.392;-6.248;2022-11-18T00:34:10;20.45;;;9.80;;
43706;SDS011;61348;53.392;-6.248;2022-11-18T00:36:38;21.00;;;10.05;;
43706;SDS011;61348;53.392;-6.248;2022-11-18T00:39:06;24.15;;;10.27;;
43706;SDS011;61348;53.392;-6.248;2022-11-18T00:41:33;22.77;;;10.23;;
43706;SDS011;61348;53.392;-6.248;2022-11-18T00:44:18;18.67;;;9.13;;
43706;SDS011;61348;53.392;-6.248;2022-11-18T00:46:45;17.98;;;10.27;;
43706;SDS011;61348;53.392;-6.248;2022-11-18T00:49:11;20.75;;;9.30;;
43706;SDS011;61348;53.392;-6.248;2022-11-18T00:51:38;18.80;;;8.85;;
43706;SDS011;61348;53.392;-6.248;2022-11-18T00:54:05;21.95;;;9.68;;
43706;SDS011;61348;53.392;-6.248;2022-11-18T00:56:32;18.30;;;7.30;;
43706;SDS011;61348;53.392;-6.248;2022-11-18T00:58:59;23.70;;;8.68;;
43706;SDS011;61348;53.392;-6.248;2022-11-18T01:01:25;18.02;;;7.72;;
43706;SDS011;61348;53.392;-6.248;2022-11-18T01:03:52;17.63;;;8.15;;
43706;SDS011;61348;53.392;-6.248;2022-11-18T01:06:19;17.80;;;8.15;;
43706;SDS011;61348;53.392;-6.248;2022-11-18T01:08:46;16.58;;;7.43;;
43706;SDS011;61348;53.392;-6.248;2022-11-18T01:11:16;19.05;;;7.05;;
43706;SDS011;61348;53.392;-6.248;2022-11-18T01:14:02;16.23;;;6.90;;
43706;SDS011;61348;53.392;-6.248;2022-11-18T01:16:28;13.18;;;5.70;;
43706;SDS011;61348;53.392;-6.248;2022-11-18T01:18:56;13.80;;;6.60;;
43706;SDS011;61348;53.392;-6.248;2022-11-18T01:21:23;14.23;;;6.60;;
43706;SDS011;61348;53.392;-6.248;2022-11-18T01:23:50;11.95;;;6.25;;
43706;SDS011;61348;53.392;-6.248;2022-11-18T01:26:17;12.25;;;6.00;;
43706;SDS011;61348;53.392;-6.248;2022-11-18T01:28:44;11.77;;;5.90;;
43706;SDS011;61348;53.392;-6.248;2022-11-18T01:31:12;11.48;;;5.15;;
43706;SDS011;61348;53.392;-6.248;2022-11-18T01:33:41;10.80;;;5.40;;
43706;SDS011;61348;53.392;-6.248;2022-11-18T01:36:27;11.52;;;5.18;;
43706;SDS011;61348;53.392;-6.248;2022-11-18T01:38:54;9.55;;;5.25;;
43706;SDS011;61348;53.392;-6.248;2022-11-18T01:41:22;8.73;;;5.78;;
43706;SDS011;61348;53.392;-6.248;2022-11-18T01:43:52;11.43;;;5.35;;
43706;SDS011;61348;53.392;-6.248;2022-11-18T01:46:21;11.88;;;6.18;;
43706;SDS011;61348;53.392;-6.248;2022-11-18T01:48:51;8.88;;;5.22;;
43706;SDS011;61348;53.392;-6.248;2022-11-18T01:51:26;8.68;;;4.95;;
43706;SDS011;61348;53.392;-6.248;2022-11-18T01:54:06;7.88;;;4.78;;
43706;SDS011;61348;53.392;-6.248;2022-11-18T01:56:44;7.93;;;5.05;;
43706;SDS011;61348;53.392;-6.248;2022-11-18T01:59:17;11.82;;;5.72;;
43706;SDS011;61348;53.392;-6.248;2022-11-18T02:01:47;7.90;;;4.10;;
43706;SDS011;61348;53.392;-6.248;2022-11-18T02:04:14;10.00;;;5.07;;
43706;SDS011;61348;53.392;-6.248;2022-11-18T02:06:42;9.38;;;4.65;;
43706;SDS011;61348;53.392;-6.248;2022-11-18T02:09:12;6.13;;;3.65;;
43706;SDS011;61348;53.392;-6.248;2022-11-18T02:11:41;7.10;;;3.92;;
43706;SDS011;61348;53.392;-6.248;2022-11-18T02:14:31;6.93;;;4.63;;
43706;SDS011;61348;53.392;-6.248;2022-11-18T02:17:13;7.75;;;4.70;;
43706;SDS011;61348;53.392;-6.248;2022-11-18T02:22:23;7.75;;;4.63;;
43706;SDS011;61348;53.392;-6.248;2022-11-18T02:24:58;7.65;;;5.00;;
43706;SDS011;61348;53.392;-6.248;2022-11-18T02:30:09;8.23;;;5.43;;
43706;SDS011;61348;53.392;-6.248;2022-11-18T02:38:25;7.72;;;4.43;;
43706;SDS011;61348;53.392;-6.248;2022-11-18T02:41:15;5.43;;;4.07;;
43706;SDS011;61348;53.392;-6.248;2022-11-18T02:43:51;6.50;;;4.35;;
43706;SDS011;61348;53.392;-6.248;2022-11-18T02:46:28;5.20;;;4.13;;
43706;SDS011;61348;53.392;-6.248;2022-11-18T02:48:58;6.32;;;4.35;;
43706;SDS011;61348;53.392;-6.248;2022-11-18T02:51:28;5.60;;;4.70;;
43706;SDS011;61348;53.392;-6.248;2022-11-18T02:53:59;5.85;;;4.07;;
43706;SDS011;61348;53.392;-6.248;2022-11-18T02:56:31;6.05;;;4.03;;
43706;SDS011;61348;53.392;-6.248;2022-11-18T03:01:54;7.20;;;3.60;;
43706;SDS011;61348;53.392;-6.248;2022-11-18T03:04:21;5.07;;;3.50;;
43706;SDS011;61348;53.392;-6.248;2022-11-18T03:07:13;5.25;;;3.58;;
43706;SDS011;61348;53.392;-6.248;2022-11-18T03:09:43;7.22;;;2.88;;
43706;SDS011;61348;53.392;-6.248;2022-11-18T03:12:23;3.40;;;2.70;;
43706;SDS011;61348;53.392;-6.248;2022-11-18T03:20:35;3.70;;;2.08;;
43706;SDS011;61348;53.392;-6.248;2022-11-18T03:23:17;3.25;;;2.40;;
43706;SDS011;61348;53.392;-6.248;2022-11-18T03:25:51;2.08;;;1.42;;
43706;SDS011;61348;53.392;-6.248;2022-11-18T03:28:30;2.22;;;1.75;;
43706;SDS011;61348;53.392;-6.248;2022-11-18T03:31:23;5.88;;;2.00;;
43706;SDS011;61348;53.392;-6.248;2022-11-18T03:34:16;4.15;;;1.35;;
43706;SDS011;61348;53.392;-6.248;2022-11-18T03:36:49;2.13;;;1.15;;
43706;SDS011;61348;53.392;-6.248;2022-11-18T03:39:25;3.03;;;0.98;;
43706;SDS011;61348;53.392;-6.248;2022-11-18T03:42:01;3.35;;;1.02;;
43706;SDS011;61348;53.392;-6.248;2022-11-18T03:44:36;0.95;;;0.65;;
43706;SDS011;61348;53.392;-6.248;2022-11-18T03:50:22;3.65;;;1.60;;
43706;SDS011;61348;53.392;-6.248;2022-11-18T03:52:54;3.17;;;0.60;;
43706;SDS011;61348;53.392;-6.248;2022-11-18T03:55:26;2.78;;;0.63;;
43706;SDS011;61348;53.392;-6.248;2022-11-18T04:00:47;1.90;;;0.52;;
43706;SDS011;61348;53.392;-6.248;2022-11-18T04:05:46;0.98;;;0.40;;
43706;SDS011;61348;53.392;-6.248;2022-11-18T04:08:20;1.30;;;0.40;;
43706;SDS011;61348;53.392;-6.248;2022-11-18T04:13:56;2.20;;;0.38;;
43706;SDS011;61348;53.392;-6.248;2022-11-18T04:16:25;4.63;;;0.75;;
43706;SDS011;61348;53.392;-6.248;2022-11-18T04:19:07;4.63;;;0.47;;
43706;SDS011;61348;53.392;-6.248;2022-11-18T04:21:34;1.55;;;0.30;;
43706;SDS011;61348;53.392;-6.248;2022-11-18T04:24:01;4.25;;;0.63;;
43706;SDS011;61348;53.392;-6.248;2022-11-18T04:26:28;4.45;;;0.63;;
43706;SDS011;61348;53.392;-6.248;2022-11-18T04:28:56;4.15;;;0.60;;
43706;SDS011;61348;53.392;-6.248;2022-11-18T04:31:23;3.97;;;0.60;;
43706;SDS011;61348;53.392;-6.248;2022-11-18T04:33:51;2.30;;;0.93;;
43706;SDS011;61348;53.392;-6.248;2022-11-18T04:36:18;5.90;;;0.70;;
43706;SDS011;61348;53.392;-6.248;2022-11-18T04:38:45;3.83;;;0.90;;
43706;SDS011;61348;53.392;-6.248;2022-11-18T04:41:12;5.38;;;0.77;;
43706;SDS011;61348;53.392;-6.248;2022-11-18T04:43:39;11.93;;;2.55;;
43706;SDS011;61348;53.392;-6.248;2022-11-18T04:46:07;7.80;;;2.00;;
43706;SDS011;61348;53.392;-6.248;2022-11-18T04:48:34;2.10;;;0.68;;
43706;SDS011;61348;53.392;-6.248;2022-11-18T04:51:04;5.13;;;1.10;;
43706;SDS011;61348;53.392;-6.248;2022-11-18T04:53:31;2.83;;;0.82;;
43706;SDS011;61348;53.392;-6.248;2022-11-18T04:56:06;9.65;;;1.25;;
43706;SDS011;61348;53.392;-6.248;2022-11-18T04:58:33;1.45;;;0.73;;
43706;SDS011;61348;53.392;-6.248;2022-11-18T05:01:00;5.22;;;0.90;;
43706;SDS011;61348;53.392;-6.248;2022-11-18T05:03:27;8.85;;;1.23;;
43706;SDS011;61348;53.392;-6.248;2022-11-18T05:05:53;10.88;;;2.53;;
43706;SDS011;61348;53.392;-6.248;2022-11-18T05:08:20;4.07;;;1.13;;
43706;SDS011;61348;53.392;-6.248;2022-11-18T05:10:47;9.20;;;1.15;;
43706;SDS011;61348;53.392;-6.248;2022-11-18T05:13:14;5.18;;;0.98;;
43706;SDS011;61348;53.392;-6.248;2022-11-18T05:15:41;9.75;;;2.22;;
43706;SDS011;61348;53.392;-6.248;2022-11-18T05:18:09;5.93;;;1.00;;
43706;SDS011;61348;53.392;-6.248;2022-11-18T05:20:36;3.78;;;0.82;;
43706;SDS011;61348;53.392;-6.248;2022-11-18T05:23:07;5.85;;;1.23;;
43706;SDS011;61348;53.392;-6.248;2022-11-18T05:25:34;2.55;;;1.02;;
43706;SDS011;61348;53.392;-6.248;2022-11-18T05:28:01;3.28;;;1.00;;
43706;SDS011;61348;53.392;-6.248;2022-11-18T05:30:28;7.20;;;1.10;;
43706;SDS011;61348;53.392;-6.248;2022-11-18T05:32:55;10.20;;;1.42;;
43706;SDS011;61348;53.392;-6.248;2022-11-18T05:35:21;9.60;;;0.88;;
43706;SDS011;61348;53.392;-6.248;2022-11-18T05:37:48;7.65;;;1.40;;
43706;SDS011;61348;53.392;-6.248;2022-11-18T05:40:15;6.97;;;1.75;;
43706;SDS011;61348;53.392;-6.248;2022-11-18T05:42:43;11.68;;;1.60;;
43706;SDS011;61348;53.392;-6.248;2022-11-18T05:45:28;6.55;;;1.27;;
43706;SDS011;61348;53.392;-6.248;2022-11-18T05:47:55;8.55;;;1.40;;
43706;SDS011;61348;53.392;-6.248;2022-11-18T05:50:26;3.92;;;1.10;;
43706;SDS011;61348;53.392;-6.248;2022-11-18T05:52:52;9.57;;;1.85;;
43706;SDS011;61348;53.392;-6.248;2022-11-18T05:55:19;6.63;;;3.17;;
43706;SDS011;61348;53.392;-6.248;2022-11-18T05:57:48;5.90;;;0.77;;
43706;SDS011;61348;53.392;-6.248;2022-11-18T06:00:15;7.78;;;1.65;;
43706;SDS011;61348;53.392;-6.248;2022-11-18T06:02:43;9.60;;;2.55;;
43706;SDS011;61348;53.392;-6.248;2022-11-18T06:05:12;5.43;;;2.13;;
43706;SDS011;61348;53.392;-6.248;2022-11-18T06:07:40;6.15;;;1.30;;
43706;SDS011;61348;53.392;-6.248;2022-11-18T06:10:22;8.43;;;1.30;;
43706;SDS011;61348;53.392;-6.248;2022-11-18T06:12:54;11.88;;;1.45;;
43706;SDS011;61348;53.392;-6.248;2022-11-18T06:15:26;7.07;;;1.90;;
43706;SDS011;61348;53.392;-6.248;2022-11-18T06:20:55;7.45;;;1.10;;
43706;SDS011;61348;53.392;-6.248;2022-11-18T06:23:26;6.47;;;1.20;;
43706;SDS011;61348;53.392;-6.248;2022-11-18T06:25:56;10.55;;;1.83;;
43706;SDS011;61348;53.392;-6.248;2022-11-18T06:28:22;10.02;;;1.70;;
43706;SDS011;61348;53.392;-6.248;2022-11-18T06:30:50;4.68;;;1.10;;
43706;SDS011;61348;53.392;-6.248;2022-11-18T06:33:17;6.72;;;1.40;;
43706;SDS011;61348;53.392;-6.248;2022-11-18T06:35:43;17.50;;;2.08;;
43706;SDS011;61348;53.392;-6.248;2022-11-18T06:38:10;5.60;;;1.42;;
43706;SDS011;61348;53.392;-6.248;2022-11-18T06:40:37;7.95;;;1.80;;
43706;SDS011;61348;53.392;-6.248;2022-11-18T06:43:04;6.68;;;1.23;;
43706;SDS011;61348;53.392;-6.248;2022-11-18T06:45:51;6.78;;;1.25;;
43706;SDS011;61348;53.392;-6.248;2022-11-18T06:48:36;5.72;;;1.25;;
43706;SDS011;61348;53.392;-6.248;2022-11-18T06:51:04;11.35;;;1.65;;
43706;SDS011;61348;53.392;-6.248;2022-11-18T06:53:32;11.10;;;1.77;;
43706;SDS011;61348;53.392;-6.248;2022-11-18T06:56:03;4.43;;;1.10;;
43706;SDS011;61348;53.392;-6.248;2022-11-18T06:58:34;10.85;;;1.95;;
43706;SDS011;61348;53.392;-6.248;2022-11-18T07:01:11;7.15;;;2.03;;
43706;SDS011;61348;53.392;-6.248;2022-11-18T07:03:47;6.32;;;1.75;;
43706;SDS011;61348;53.392;-6.248;2022-11-18T07:06:18;8.82;;;1.27;;
43706;SDS011;61348;53.392;-6.248;2022-11-18T07:08:49;17.08;;;2.65;;
43706;SDS011;61348;53.392;-6.248;2022-11-18T07:11:18;9.98;;;1.30;;
43706;SDS011;61348;53.392;-6.248;2022-11-18T07:13:46;5.43;;;1.23;;
43706;SDS011;61348;53.392;-6.248;2022-11-18T07:16:15;10.35;;;1.40;;
43706;SDS011;61348;53.392;-6.248;2022-11-18T07:18:44;10.43;;;1.70;;
43706;SDS011;61348;53.392;-6.248;2022-11-18T07:21:15;6.68;;;1.25;;
43706;SDS011;61348;53.392;-6.248;2022-11-18T07:23:44;8.05;;;1.42;;
43706;SDS011;61348;53.392;-6.248;2022-11-18T07:26:12;5.57;;;1.55;;
43706;SDS011;61348;53.392;-6.248;2022-11-18T07:28:41;7.57;;;1.27;;
43706;SDS011;61348;53.392;-6.248;2022-11-18T07:31:09;17.60;;;3.25;;
43706;SDS011;61348;53.392;-6.248;2022-11-18T07:33:38;6.57;;;1.30;;
43706;SDS011;61348;53.392;-6.248;2022-11-18T07:36:10;9.20;;;1.50;;
43706;SDS011;61348;53.392;-6.248;2022-11-18T07:38:38;9.65;;;2.35;;
43706;SDS011;61348;53.392;-6.248;2022-11-18T07:41:12;7.15;;;1.75;;
43706;SDS011;61348;53.392;-6.248;2022-11-18T07:43:44;5.15;;;1.00;;
43706;SDS011;61348;53.392;-6.248;2022-11-18T07:48:53;10.45;;;3.63;;
43706;SDS011;61348;53.392;-6.248;2022-11-18T07:51:23;8.68;;;1.70;;
43706;SDS011;61348;53.392;-6.248;2022-11-18T07:53:51;4.03;;;1.13;;
43706;SDS011;61348;53.392;-6.248;2022-11-18T07:56:18;19.13;;;2.97;;
43706;SDS011;61348;53.392;-6.248;2022-11-18T07:58:46;8.60;;;1.13;;
43706;SDS011;61348;53.392;-6.248;2022-11-18T08:01:14;8.43;;;1.58;;
43706;SDS011;61348;53.392;-6.248;2022-11-18T08:03:42;7.50;;;1.60;;
43706;SDS011;61348;53.392;-6.248;2022-11-18T08:06:10;8.93;;;1.20;;
43706;SDS011;61348;53.392;-6.248;2022-11-18T08:08:38;8.40;;;1.23;;
43706;SDS011;61348;53.392;-6.248;2022-11-18T08:11:07;10.40;;;1.55;;
43706;SDS011;61348;53.392;-6.248;2022-11-18T08:13:37;10.48;;;1.52;;
43706;SDS011;61348;53.392;-6.248;2022-11-18T08:16:04;10.13;;;1.20;;
43706;SDS011;61348;53.392;-6.248;2022-11-18T08:18:38;11.38;;;3.58;;
43706;SDS011;61348;53.392;-6.248;2022-11-18T08:21:05;4.53;;;1.30;;
43706;SDS011;61348;53.392;-6.248;2022-11-18T08:23:32;13.05;;;1.92;;
43706;SDS011;61348;53.392;-6.248;2022-11-18T08:26:10;7.93;;;1.45;;
43706;SDS011;61348;53.392;-6.248;2022-11-18T08:28:41;8.18;;;2.22;;
43706;SDS011;61348;53.392;-6.248;2022-11-18T08:31:12;10.55;;;2.70;;
43706;SDS011;61348;53.392;-6.248;2022-11-18T08:33:42;14.85;;;2.50;;
43706;SDS011;61348;53.392;-6.248;2022-11-18T08:36:20;9.00;;;1.52;;
43706;SDS011;61348;53.392;-6.248;2022-11-18T08:38:48;9.75;;;2.53;;
43706;SDS011;61348;53.392;-6.248;2022-11-18T08:41:15;7.15;;;1.20;;
43706;SDS011;61348;53.392;-6.248;2022-11-18T08:43:54;8.30;;;1.80;;
43706;SDS011;61348;53.392;-6.248;2022-11-18T08:46:21;8.02;;;1.35;;
43706;SDS011;61348;53.392;-6.248;2022-11-18T08:48:48;10.25;;;1.52;;
43706;SDS011;61348;53.392;-6.248;2022-11-18T08:51:15;8.32;;;1.50;;
43706;SDS011;61348;53.392;-6.248;2022-11-18T08:53:42;7.57;;;1.63;;
43706;SDS011;61348;53.392;-6.248;2022-11-18T08:56:14;5.05;;;1.83;;
43706;SDS011;61348;53.392;-6.248;2022-11-18T08:58:43;10.85;;;1.63;;
43706;SDS011;61348;53.392;-6.248;2022-11-18T09:01:10;7.20;;;1.80;;
43706;SDS011;61348;53.392;-6.248;2022-11-18T09:03:37;7.43;;;1.65;;
43706;SDS011;61348;53.392;-6.248;2022-11-18T09:06:06;11.82;;;3.97;;
43706;SDS011;61348;53.392;-6.248;2022-11-18T09:08:35;9.30;;;1.67;;
43706;SDS011;61348;53.392;-6.248;2022-11-18T09:11:06;5.35;;;1.10;;
43706;SDS011;61348;53.392;-6.248;2022-11-18T09:13:34;7.40;;;1.40;;
43706;SDS011;61348;53.392;-6.248;2022-11-18T09:16:22;5.80;;;1.48;;
43706;SDS011;61348;53.392;-6.248;2022-11-18T09:18:55;7.35;;;1.20;;
43706;SDS011;61348;53.392;-6.248;2022-11-18T09:21:23;7.22;;;1.85;;
43706;SDS011;61348;53.392;-6.248;2022-11-18T09:23:51;14.70;;;2.50;;
43706;SDS011;61348;53.392;-6.248;2022-11-18T09:26:19;8.57;;;1.30;;
43706;SDS011;61348;53.392;-6.248;2022-11-18T09:28:51;5.07;;;1.10;;
43706;SDS011;61348;53.392;-6.248;2022-11-18T09:31:19;6.32;;;1.50;;
43706;SDS011;61348;53.392;-6.248;2022-11-18T09:33:46;13.60;;;3.25;;
43706;SDS011;61348;53.392;-6.248;2022-11-18T09:36:15;5.20;;;1.20;;
43706;SDS011;61348;53.392;-6.248;2022-11-18T09:38:44;6.35;;;1.48;;
43706;SDS011;61348;53.392;-6.248;2022-11-18T09:49:57;7.53;;;1.58;;
43706;SDS011;61348;53.392;-6.248;2022-11-18T09:55:50;10.02;;;1.00;;
43706;SDS011;61348;53.392;-6.248;2022-11-18T09:58:21;8.00;;;1.65;;
43706;SDS011;61348;53.392;-6.248;2022-11-18T10:00:59;8.83;;;1.23;;
43706;SDS011;61348;53.392;-6.248;2022-11-18T10:03:27;9.70;;;1.55;;
43706;SDS011;61348;53.392;-6.248;2022-11-18T10:19:31;6.97;;;1.23;;
43706;SDS011;61348;53.392;-6.248;2022-11-18T10:22:20;6.97;;;1.40;;
43706;SDS011;61348;53.392;-6.248;2022-11-18T10:24:54;11.05;;;1.77;;
43706;SDS011;61348;53.392;-6.248;2022-11-18T10:27:22;11.68;;;1.65;;
43706;SDS011;61348;53.392;-6.248;2022-11-18T10:29:54;8.05;;;1.25;;
43706;SDS011;61348;53.392;-6.248;2022-11-18T10:32:23;8.88;;;2.08;;
43706;SDS011;61348;53.392;-6.248;2022-11-18T10:34:54;7.30;;;1.75;;
43706;SDS011;61348;53.392;-6.248;2022-11-18T10:37:33;6.25;;;1.33;;
43706;SDS011;61348;53.392;-6.248;2022-11-18T10:40:24;4.65;;;1.20;;
43706;SDS011;61348;53.392;-6.248;2022-11-18T10:42:52;6.72;;;1.17;;
43706;SDS011;61348;53.392;-6.248;2022-11-18T10:48:32;6.80;;;2.03;;
43706;SDS011;61348;53.392;-6.248;2022-11-18T10:50:44;5.78;;;1.83;;
43706;SDS011;61348;53.392;-6.248;2022-11-18T10:53:31;3.53;;;1.10;;
43706;SDS011;61348;53.392;-6.248;2022-11-18T10:56:04;5.28;;;1.17;;
43706;SDS011;61348;53.392;-6.248;2022-11-18T10:58:50;5.03;;;1.52;;
43706;SDS011;61348;53.392;-6.248;2022-11-18T11:01:22;8.98;;;2.40;;
43706;SDS011;61348;53.392;-6.248;2022-11-18T11:06:20;7.55;;;1.35;;
43706;SDS011;61348;53.392;-6.248;2022-11-18T11:09:08;8.13;;;1.67;;
43706;SDS011;61348;53.392;-6.248;2022-11-18T11:11:55;3.63;;;1.17;;
43706;SDS011;61348;53.392;-6.248;2022-11-18T11:14:22;6.35;;;1.10;;
43706;SDS011;61348;53.392;-6.248;2022-11-18T11:22:32;3.58;;;1.83;;
43706;SDS011;61348;53.392;-6.248;2022-11-18T11:24:59;6.80;;;1.63;;
43706;SDS011;61348;53.392;-6.248;2022-11-18T11:27:31;7.20;;;1.10;;
43706;SDS011;61348;53.392;-6.248;2022-11-18T11:30:29;2.90;;;1.23;;
43706;SDS011;61348;53.392;-6.248;2022-11-18T11:41:23;4.45;;;1.42;;
43706;SDS011;61348;53.392;-6.248;2022-11-18T11:49:50;10.10;;;1.38;;
43706;SDS011;61348;53.392;-6.248;2022-11-18T11:52:30;5.63;;;1.52;;
43706;SDS011;61348;53.392;-6.248;2022-11-18T11:57:53;5.45;;;0.98;;
43706;SDS011;61348;53.392;-6.248;2022-11-18T12:00:24;6.50;;;1.13;;
43706;SDS011;61348;53.392;-6.248;2022-11-18T12:08:08;9.63;;;1.35;;
43706;SDS011;61348;53.392;-6.248;2022-11-18T12:13:21;4.72;;;1.40;;
43706;SDS011;61348;53.392;-6.248;2022-11-18T12:21:50;7.90;;;1.10;;
43706;SDS011;61348;53.392;-6.248;2022-11-18T12:26:44;7.60;;;1.83;;
43706;SDS011;61348;53.392;-6.248;2022-11-18T12:31:57;5.15;;;1.25;;
43706;SDS011;61348;53.392;-6.248;2022-11-18T12:36:52;6.72;;;1.30;;
43706;SDS011;61348;53.392;-6.248;2022-11-18T12:41:59;5.35;;;1.33;;
43706;SDS011;61348;53.392;-6.248;2022-11-18T12:44:47;6.97;;;1.55;;
43706;SDS011;61348;53.392;-6.248;2022-11-18T12:50:08;5.65;;;1.38;;
43706;SDS011;61348;53.392;-6.248;2022-11-18T12:55:14;5.32;;;1.08;;
43706;SDS011;61348;53.392;-6.248;2022-11-18T12:57:56;5.38;;;1.52;;
43706;SDS011;61348;53.392;-6.248;2022-11-18T13:02:56;3.90;;;0.65;;
43706;SDS011;61348;53.392;-6.248;2022-11-18T13:05:31;10.60;;;0.90;;
43706;SDS011;61348;53.392;-6.248;2022-11-18T13:08:09;7.47;;;1.10;;
43706;SDS011;61348;53.392;-6.248;2022-11-18T13:10:54;5.25;;;1.08;;
43706;SDS011;61348;53.392;-6.248;2022-11-18T13:13:43;5.78;;;1.23;;
43706;SDS011;61348;53.392;-6.248;2022-11-18T13:16:21;4.10;;;1.58;;
43706;SDS011;61348;53.392;-6.248;2022-11-18T13:19:09;4.03;;;0.95;;
43706;SDS011;61348;53.392;-6.248;2022-11-18T13:21:55;2.97;;;1.05;;
43706;SDS011;61348;53.392;-6.248;2022-11-18T13:24:47;12.10;;;2.45;;
43706;SDS011;61348;53.392;-6.248;2022-11-18T13:30:13;3.90;;;1.10;;
43706;SDS011;61348;53.392;-6.248;2022-11-18T13:32:43;5.03;;;1.20;;
43706;SDS011;61348;53.392;-6.248;2022-11-18T13:35:15;12.27;;;1.20;;
43706;SDS011;61348;53.392;-6.248;2022-11-18T13:37:49;6.28;;;1.40;;
43706;SDS011;61348;53.392;-6.248;2022-11-18T13:40:21;4.28;;;1.38;;
43706;SDS011;61348;53.392;-6.248;2022-11-18T13:42:51;7.28;;;1.63;;
43706;SDS011;61348;53.392;-6.248;2022-11-18T13:45:18;10.93;;;1.35;;
43706;SDS011;61348;53.392;-6.248;2022-11-18T13:53:12;6.00;;;1.02;;
43706;SDS011;61348;53.392;-6.248;2022-11-18T13:55:49;9.32;;;3.25;;
43706;SDS011;61348;53.392;-6.248;2022-11-18T14:01:21;7.25;;;2.08;;
43706;SDS011;61348;53.392;-6.248;2022-11-18T14:03:54;3.70;;;1.33;;
43706;SDS011;61348;53.392;-6.248;2022-11-18T14:09:05;10.90;;;1.63;;
43706;SDS011;61348;53.392;-6.248;2022-11-18T14:15:19;6.38;;;1.30;;
43706;SDS011;61348;53.392;-6.248;2022-11-18T14:17:55;7.72;;;2.42;;
43706;SDS011;61348;53.392;-6.248;2022-11-18T14:20:24;3.30;;;0.98;;
43706;SDS011;61348;53.392;-6.248;2022-11-18T14:22:54;7.43;;;1.23;;
43706;SDS011;61348;53.392;-6.248;2022-11-18T14:25:26;8.88;;;1.95;;
43706;SDS011;61348;53.392;-6.248;2022-11-18T14:30:54;6.18;;;1.80;;
43706;SDS011;61348;53.392;-6.248;2022-11-18T14:33:24;3.92;;;1.55;;
43706;SDS011;61348;53.392;-6.248;2022-11-18T14:35:55;6.90;;;1.80;;
43706;SDS011;61348;53.392;-6.248;2022-11-18T14:38:29;7.20;;;1.70;;
43706;SDS011;61348;53.392;-6.248;2022-11-18T14:41:19;5.60;;;1.60;;
43706;SDS011;61348;53.392;-6.248;2022-11-18T14:44:10;7.25;;;1.77;;
43706;SDS011;61348;53.392;-6.248;2022-11-18T14:46:39;5.78;;;1.40;;
43706;SDS011;61348;53.392;-6.248;2022-11-18T14:49:12;7.13;;;1.85;;
43706;SDS011;61348;53.392;-6.248;2022-11-18T14:51:43;7.35;;;1.73;;
43706;SDS011;61348;53.392;-6.248;2022-11-18T14:54:11;8.45;;;3.30;;
43706;SDS011;61348;53.392;-6.248;2022-11-18T14:56:51;12.13;;;2.10;;
43706;SDS011;61348;53.392;-6.248;2022-11-18T14:59:20;13.15;;;1.60;;
43706;SDS011;61348;53.392;-6.248;2022-11-18T15:01:47;8.10;;;1.90;;
43706;SDS011;61348;53.392;-6.248;2022-11-18T15:04:15;7.32;;;2.08;;
43706;SDS011;61348;53.392;-6.248;2022-11-18T15:06:47;5.32;;;2.00;;
43706;SDS011;61348;53.392;-6.248;2022-11-18T15:09:13;8.48;;;2.22;;
43706;SDS011;61348;53.392;-6.248;2022-11-18T15:11:40;8.32;;;1.63;;
43706;SDS011;61348;53.392;-6.248;2022-11-18T15:14:07;5.97;;;1.15;;
43706;SDS011;61348;53.392;-6.248;2022-11-18T15:16:35;6.90;;;1.50;;
43706;SDS011;61348;53.392;-6.248;2022-11-18T15:19:03;3.90;;;1.80;;
43706;SDS011;61348;53.392;-6.248;2022-11-18T15:21:32;7.75;;;1.40;;
43706;SDS011;61348;53.392;-6.248;2022-11-18T15:23:59;7.03;;;1.17;;
43706;SDS011;61348;53.392;-6.248;2022-11-18T15:26:27;7.25;;;1.20;;
43706;SDS011;61348;53.392;-6.248;2022-11-18T15:28:55;4.10;;;1.20;;
43706;SDS011;61348;53.392;-6.248;2022-11-18T15:31:23;6.40;;;2.13;;
43706;SDS011;61348;53.392;-6.248;2022-11-18T15:33:51;9.77;;;2.08;;
43706;SDS011;61348;53.392;-6.248;2022-11-18T15:36:24;8.45;;;1.35;;
43706;SDS011;61348;53.392;-6.248;2022-11-18T15:38:53;4.38;;;1.20;;
43706;SDS011;61348;53.392;-6.248;2022-11-18T15:41:21;6.15;;;1.25;;
43706;SDS011;61348;53.392;-6.248;2022-11-18T15:43:50;4.10;;;1.70;;
43706;SDS011;61348;53.392;-6.248;2022-11-18T15:46:19;4.95;;;1.90;;
43706;SDS011;61348;53.392;-6.248;2022-11-18T15:48:49;5.18;;;2.33;;
43706;SDS011;61348;53.392;-6.248;2022-11-18T15:51:17;7.90;;;3.55;;
43706;SDS011;61348;53.392;-6.248;2022-11-18T15:53:44;6.18;;;2.35;;
43706;SDS011;61348;53.392;-6.248;2022-11-18T15:58:44;5.28;;;1.80;;
43706;SDS011;61348;53.392;-6.248;2022-11-18T16:01:17;7.30;;;1.90;;
43706;SDS011;61348;53.392;-6.248;2022-11-18T16:03:44;11.73;;;2.72;;
43706;SDS011;61348;53.392;-6.248;2022-11-18T16:06:11;5.22;;;1.80;;
43706;SDS011;61348;53.392;-6.248;2022-11-18T16:08:38;5.25;;;2.30;;
43706;SDS011;61348;53.392;-6.248;2022-11-18T16:11:04;5.25;;;2.13;;
43706;SDS011;61348;53.392;-6.248;2022-11-18T16:13:50;12.93;;;3.17;;
43706;SDS011;61348;53.392;-6.248;2022-11-18T16:16:17;7.28;;;2.95;;
43706;SDS011;61348;53.392;-6.248;2022-11-18T16:18:45;8.50;;;2.85;;
43706;SDS011;61348;53.392;-6.248;2022-11-18T16:21:13;9.43;;;3.90;;
43706;SDS011;61348;53.392;-6.248;2022-11-18T16:23:40;20.83;;;3.55;;
43706;SDS011;61348;53.392;-6.248;2022-11-18T16:26:07;9.45;;;3.08;;
43706;SDS011;61348;53.392;-6.248;2022-11-18T16:28:34;12.52;;;4.25;;
43706;SDS011;61348;53.392;-6.248;2022-11-18T16:31:02;9.40;;;3.13;;
43706;SDS011;61348;53.392;-6.248;2022-11-18T16:33:47;6.57;;;2.28;;
43706;SDS011;61348;53.392;-6.248;2022-11-18T16:36:14;10.68;;;3.47;;
43706;SDS011;61348;53.392;-6.248;2022-11-18T16:38:41;17.35;;;4.43;;
43706;SDS011;61348;53.392;-6.248;2022-11-18T16:41:08;13.52;;;3.85;;
43706;SDS011;61348;53.392;-6.248;2022-11-18T16:43:54;10.13;;;3.47;;
43706;SDS011;61348;53.392;-6.248;2022-11-18T16:46:20;11.32;;;4.35;;
43706;SDS011;61348;53.392;-6.248;2022-11-18T16:48:47;8.43;;;3.53;;
43706;SDS011;61348;53.392;-6.248;2022-11-18T16:51:33;8.80;;;1.95;;
43706;SDS011;61348;53.392;-6.248;2022-11-18T16:54:21;4.90;;;2.72;;
43706;SDS011;61348;53.392;-6.248;2022-11-18T16:57:09;10.45;;;2.67;;
43706;SDS011;61348;53.392;-6.248;2022-11-18T16:59:56;4.88;;;1.70;;
43706;SDS011;61348;53.392;-6.248;2022-11-18T17:02:43;9.60;;;3.38;;
43706;SDS011;61348;53.392;-6.248;2022-11-18T17:05:32;7.65;;;2.30;;
43706;SDS011;61348;53.392;-6.248;2022-11-18T17:08:19;10.88;;;5.40;;
43706;SDS011;61348;53.392;-6.248;2022-11-18T17:11:07;19.77;;;7.13;;
43706;SDS011;61348;53.392;-6.248;2022-11-18T17:13:57;11.57;;;6.32;;
43706;SDS011;61348;53.392;-6.248;2022-11-18T17:16:44;10.52;;;4.05;;
43706;SDS011;61348;53.392;-6.248;2022-11-18T17:19:31;11.43;;;5.80;;
43706;SDS011;61348;53.392;-6.248;2022-11-18T17:22:18;8.98;;;4.80;;
43706;SDS011;61348;53.392;-6.248;2022-11-18T17:25:05;10.57;;;4.40;;
43706;SDS011;61348;53.392;-6.248;2022-11-18T17:27:53;9.32;;;3.42;;